Time;durP1;ratioP1;P1;durP2;ratioP2;P2;SDS_P1;SDS_P2;PMS_P1;PMS_P2;Temp;Humidity;BMP_temperature;BMP_pressure;BME280_temperature;BME280_humidity;BME280_pressure;Samples;Min_cycle;Max_cycle;Signal;HPM_P1;HPM_P2
2022/04/20 00:00:15;;;;;;;1.33;1.23;;;18.90;42.60;;;;;;5040865;28;20218;-57
2022/04/20 00:02:41;;;;;;;1.30;1.20;;;18.90;42.60;;;;;;5041743;28;20246;-56
2022/04/20 00:05:07;;;;;;;1.70;1.60;;;18.90;42.50;;;;;;5037654;28;20434;-56
2022/04/20 00:07:33;;;;;;;1.40;1.30;;;18.90;42.50;;;;;;5036558;28;20242;-56
2022/04/20 00:09:59;;;;;;;1.40;1.00;;;18.90;42.60;;;;;;5035842;28;20214;-57
2022/04/20 00:12:25;;;;;;;1.50;1.40;;;18.90;42.50;;;;;;5038665;28;20797;-56
2022/04/20 00:14:51;;;;;;;1.33;1.23;;;18.90;42.60;;;;;;5035638;28;20425;-57
2022/04/20 00:17:17;;;;;;;1.60;1.43;;;18.90;42.60;;;;;;5042469;28;20462;-57
2022/04/20 00:19:42;;;;;;;1.37;1.27;;;18.90;42.60;;;;;;5042548;28;20223;-57
2022/04/20 00:22:08;;;;;;;1.43;1.33;;;18.90;42.70;;;;;;5040841;28;20754;-56
2022/04/20 00:24:34;;;;;;;1.30;1.20;;;18.80;42.50;;;;;;5037664;28;20214;-57
2022/04/20 00:27:00;;;;;;;1.30;1.20;;;18.80;42.50;;;;;;5038608;28;20222;-57
2022/04/20 00:29:25;;;;;;;1.27;1.10;;;18.80;42.50;;;;;;5034759;28;20230;-57
2022/04/20 00:31:51;;;;;;;1.20;1.10;;;18.90;42.60;;;;;;5032850;28;20350;-57
2022/04/20 00:34:16;;;;;;;1.23;1.13;;;18.90;42.60;;;;;;5042159;28;20230;-57
2022/04/20 00:36:42;;;;;;;1.37;1.27;;;18.80;42.50;;;;;;5044491;28;20654;-56
2022/04/20 00:39:07;;;;;;;1.40;1.30;;;18.80;42.50;;;;;;5038004;28;20243;-56
2022/04/20 00:41:33;;;;;;;1.20;1.10;;;18.80;42.50;;;;;;5039808;28;20640;-56
2022/04/20 00:44:00;;;;;;;1.40;1.30;;;18.80;42.50;;;;;;5043007;28;20793;-57
2022/04/20 00:46:26;;;;;;;1.57;1.47;;;18.80;42.50;;;;;;5039700;28;20223;-56
2022/04/20 00:48:52;;;;;;;1.50;1.40;;;18.80;42.50;;;;;;5042190;28;20459;-57
2022/04/20 00:51:18;;;;;;;1.30;1.20;;;18.80;42.60;;;;;;5044044;28;20444;-57
2022/04/20 00:53:44;;;;;;;1.30;1.20;;;18.80;42.50;;;;;;5035905;28;20459;-56
2022/04/20 00:56:10;;;;;;;1.60;1.50;;;18.80;42.50;;;;;;5044895;28;20790;-56
2022/04/20 00:58:39;;;;;;;1.17;1.07;;;18.80;42.50;;;;;;5047418;28;21871;-56
2022/04/20 01:01:05;;;;;;;1.30;1.20;;;18.80;42.50;;;;;;5040105;28;20221;-56
2022/04/20 01:03:31;;;;;;;1.33;1.23;;;18.80;42.50;;;;;;5042530;28;20467;-56
2022/04/20 01:05:56;;;;;;;1.30;1.20;;;18.80;42.50;;;;;;5046277;28;20214;-56
2022/04/20 01:08:22;;;;;;;2.33;1.20;;;18.80;42.50;;;;;;5040633;28;20684;-57
2022/04/20 01:10:47;;;;;;;1.40;1.30;;;18.80;42.50;;;;;;5043632;28;20223;-58
2022/04/20 01:13:13;;;;;;;1.23;1.13;;;18.80;42.50;;;;;;5046701;28;20743;-57
2022/04/20 01:15:39;;;;;;;1.07;1.00;;;18.80;42.50;;;;;;5041074;28;20226;-57
2022/04/20 01:18:15;;;;;;;1.20;1.10;;;18.80;42.50;;;;;;5040527;28;20250;-56
2022/04/20 01:20:42;;;;;;;1.30;1.20;;;18.80;42.50;;;;;;5044188;28;20411;-57
2022/04/20 01:23:07;;;;;;;1.13;1.03;;;18.80;42.50;;;;;;5039454;28;20437;-57
2022/04/20 01:25:33;;;;;;;1.10;1.00;;;18.80;42.50;;;;;;5045097;28;20585;-57
2022/04/20 01:28:00;;;;;;;1.40;1.30;;;18.80;42.50;;;;;;5045438;28;20271;-57
2022/04/20 01:30:25;;;;;;;1.20;1.10;;;18.80;42.50;;;;;;5040570;28;20226;-57
2022/04/20 01:32:51;;;;;;;1.40;1.30;;;18.80;42.50;;;;;;5047176;28;20421;-57
2022/04/20 01:35:17;;;;;;;1.43;1.33;;;18.80;42.50;;;;;;5046096;28;20207;-57
2022/04/20 01:37:42;;;;;;;1.37;1.27;;;18.80;42.50;;;;;;5039562;28;20222;-56
2022/04/20 01:40:08;;;;;;;1.40;1.30;;;18.80;42.50;;;;;;5045059;28;20334;-57
2022/04/20 01:42:34;;;;;;;0.90;0.90;;;18.80;42.50;;;;;;5044578;28;20299;-57
2022/04/20 01:45:01;;;;;;;1.30;1.20;;;18.80;42.50;;;;;;5036364;28;20824;-57
2022/04/20 01:47:27;;;;;;;1.23;1.13;;;18.80;42.50;;;;;;5039136;28;20271;-56
2022/04/20 01:49:52;;;;;;;1.30;1.20;;;18.80;42.50;;;;;;5043313;28;20508;-57
2022/04/20 01:52:18;;;;;;;1.30;1.20;;;18.80;42.50;;;;;;5042554;28;20591;-57
2022/04/20 01:54:44;;;;;;;1.40;1.30;;;18.80;42.50;;;;;;5045957;28;20226;-57
2022/04/20 01:57:09;;;;;;;1.30;1.20;;;18.80;43.30;;;;;;5041899;28;20218;-57
2022/04/20 01:59:35;;;;;;;1.20;1.10;;;18.80;42.50;;;;;;5039440;28;20738;-57
2022/04/20 02:04:45;;;;;;;1.40;1.30;;;18.80;43.30;;;;;;5040156;28;20244;-57
2022/04/20 02:07:10;;;;;;;1.30;1.20;;;18.80;42.50;;;;;;5039193;28;20792;-57
2022/04/20 02:09:36;;;;;;;1.33;1.23;;;18.80;42.60;;;;;;5044206;28;20270;-57
2022/04/20 02:12:01;;;;;;;1.40;1.30;;;18.80;42.50;;;;;;5044854;28;20218;-57
2022/04/20 02:14:27;;;;;;;1.30;1.20;;;18.80;42.50;;;;;;5045651;28;21081;-57
2022/04/20 02:16:53;;;;;;;1.30;1.20;;;18.70;42.50;;;;;;5040043;28;20713;-57
2022/04/20 02:19:18;;;;;;;1.40;1.30;;;18.80;42.50;;;;;;5037986;28;20219;-57
2022/04/20 02:21:44;;;;;;;1.37;1.20;;;18.70;42.50;;;;;;5042168;28;20230;-57
2022/04/20 02:24:14;;;;;;;1.40;1.30;;;18.80;42.50;;;;;;5040776;28;20301;-57
2022/04/20 02:26:40;;;;;;;1.10;1.10;;;18.80;42.50;;;;;;5043522;28;20233;-57
2022/04/20 02:29:06;;;;;;;1.23;1.13;;;18.80;42.50;;;;;;5037115;28;20430;-57
2022/04/20 02:31:32;;;;;;;1.73;1.20;;;18.70;42.40;;;;;;5039079;28;20530;-57
2022/04/20 02:33:57;;;;;;;1.33;1.23;;;18.80;42.60;;;;;;5045561;28;20317;-57
2022/04/20 02:36:23;;;;;;;1.30;1.20;;;18.70;42.50;;;;;;5041524;28;20250;-57
2022/04/20 02:38:50;;;;;;;1.20;1.10;;;18.70;42.40;;;;;;5041043;28;20217;-56
2022/04/20 02:41:16;;;;;;;1.30;1.20;;;18.70;42.50;;;;;;5044796;28;20471;-57
2022/04/20 02:43:42;;;;;;;1.17;1.03;;;18.70;42.40;;;;;;5037980;28;20441;-57
2022/04/20 02:46:07;;;;;;;1.10;1.00;;;18.80;42.50;;;;;;5038704;28;20428;-57
2022/04/20 02:48:35;;;;;;;1.40;1.30;;;18.70;42.50;;;;;;5040639;28;20314;-57
2022/04/20 02:51:00;;;;;;;1.30;1.20;;;18.70;42.50;;;;;;5044960;28;20227;-57
2022/04/20 02:53:26;;;;;;;1.27;1.17;;;18.70;42.40;;;;;;5040026;28;20466;-57
2022/04/20 02:55:51;;;;;;;1.23;1.13;;;18.70;42.50;;;;;;5042565;28;20479;-57
2022/04/20 02:58:17;;;;;;;1.40;1.30;;;18.70;42.40;;;;;;5042200;28;21003;-58
2022/04/20 03:00:43;;;;;;;1.40;1.30;;;18.70;42.30;;;;;;5036249;28;20235;-57
2022/04/20 03:03:09;;;;;;;1.43;1.33;;;18.70;42.40;;;;;;5045969;28;20600;-56
2022/04/20 03:05:34;;;;;;;0.83;0.83;;;18.70;42.40;;;;;;5037957;28;20575;-57
2022/04/20 03:08:00;;;;;;;1.40;1.30;;;18.70;42.30;;;;;;5035692;28;20447;-57
2022/04/20 03:10:26;;;;;;;1.40;1.30;;;18.70;42.40;;;;;;5040686;28;20619;-57
2022/04/20 03:12:52;;;;;;;1.40;1.30;;;18.70;42.40;;;;;;5039331;28;20252;-57
2022/04/20 03:15:18;;;;;;;1.30;1.20;;;18.70;42.30;;;;;;5035071;28;20227;-57
2022/04/20 03:17:43;;;;;;;1.00;1.00;;;18.70;42.30;;;;;;5041961;28;20280;-57
2022/04/20 03:20:10;;;;;;;1.30;1.20;;;18.70;42.30;;;;;;5040710;28;20417;-57
2022/04/20 03:22:36;;;;;;;1.20;1.10;;;18.70;42.30;;;;;;5040243;28;20272;-57
2022/04/20 03:25:02;;;;;;;1.50;1.40;;;18.70;42.30;;;;;;5042703;28;20442;-57
2022/04/20 03:27:27;;;;;;;1.30;1.20;;;18.80;42.40;;;;;;5043535;28;20224;-57
2022/04/20 03:29:53;;;;;;;1.47;1.37;;;18.70;42.20;;;;;;5036424;28;20442;-57
2022/04/20 03:32:19;;;;;;;1.17;1.07;;;18.80;42.40;;;;;;5023869;28;20226;-57
2022/04/20 03:34:45;;;;;;;1.30;1.20;;;18.70;42.20;;;;;;5041183;28;20222;-57
2022/04/20 03:37:10;;;;;;;1.40;1.30;;;18.80;42.30;;;;;;5038005;28;20468;-57
2022/04/20 03:39:37;;;;;;;1.10;1.00;;;18.70;42.30;;;;;;5039487;28;20242;-57
2022/04/20 03:42:03;;;;;;;1.63;1.53;;;18.70;42.20;;;;;;5040863;28;20247;-57
2022/04/20 03:44:30;;;;;;;1.20;1.10;;;18.70;42.20;;;;;;5036692;28;20514;-57
2022/04/20 03:46:56;;;;;;;1.20;1.10;;;18.80;42.30;;;;;;5043865;28;20433;-57
2022/04/20 03:49:21;;;;;;;1.60;1.50;;;18.70;42.20;;;;;;5036845;28;20430;-57
2022/04/20 03:51:47;;;;;;;1.30;1.20;;;18.80;42.30;;;;;;5039485;28;20223;-57
2022/04/20 03:54:13;;;;;;;1.20;1.10;;;18.70;42.20;;;;;;5040740;28;20227;-57
2022/04/20 03:59:23;;;;;;;1.10;1.00;;;18.70;42.20;;;;;;5038907;28;20977;-57
2022/04/20 04:01:49;;;;;;;1.27;1.17;;;18.70;42.20;;;;;;5042420;28;20439;-57
2022/04/20 04:04:15;;;;;;;1.30;1.20;;;18.70;42.20;;;;;;5041027;28;20233;-57
2022/04/20 04:06:40;;;;;;;1.40;1.30;;;18.70;42.20;;;;;;5043299;28;20991;-57
2022/04/20 04:09:06;;;;;;;1.33;1.23;;;18.70;42.20;;;;;;5038893;28;20239;-57
2022/04/20 04:11:32;;;;;;;1.30;1.20;;;18.70;42.90;;;;;;5042592;28;20431;-57
2022/04/20 04:13:58;;;;;;;1.40;1.30;;;18.70;42.10;;;;;;5037656;28;20437;-57
2022/04/20 04:16:24;;;;;;;1.30;1.20;;;18.70;42.10;;;;;;5041105;28;20229;-58
2022/04/20 04:18:50;;;;;;;1.30;1.20;;;18.70;42.20;;;;;;5044748;28;20411;-57
2022/04/20 04:21:16;;;;;;;1.40;1.30;;;18.70;42.10;;;;;;5039009;28;20225;-57
2022/04/20 04:23:42;;;;;;;1.30;1.20;;;18.80;42.10;;;;;;5044256;28;20226;-57
2022/04/20 04:26:07;;;;;;;1.30;1.20;;;18.90;42.10;;;;;;5047641;28;20469;-56
2022/04/20 04:28:33;;;;;;;1.30;1.20;;;18.90;42.00;;;;;;5041906;28;20261;-56
2022/04/20 04:30:58;;;;;;;1.30;1.20;;;18.90;41.90;;;;;;5042748;28;20223;-56
2022/04/20 04:33:24;;;;;;;1.30;1.20;;;18.90;41.80;;;;;;5045928;28;20272;-56
2022/04/20 04:35:50;;;;;;;1.40;1.30;;;18.90;41.70;;;;;;5040835;28;20227;-56
2022/04/20 04:38:15;;;;;;;1.20;1.10;;;19.00;41.80;;;;;;5042877;28;20313;-56
2022/04/20 04:40:41;;;;;;;1.40;1.30;;;19.00;41.80;;;;;;5044868;28;20221;-56
2022/04/20 04:43:07;;;;;;;1.30;1.20;;;19.00;41.80;;;;;;5042531;28;20663;-56
2022/04/20 04:51:01;;;;;;;1.33;1.23;;;19.00;41.80;;;;;;5043607;28;20896;-57
2022/04/20 04:53:26;;;;;;;1.27;1.17;;;19.00;41.90;;;;;;5039573;28;20478;-57
2022/04/20 04:55:52;;;;;;;1.10;1.00;;;19.00;41.80;;;;;;5046520;28;20456;-57
2022/04/20 04:58:17;;;;;;;1.30;1.20;;;19.00;41.90;;;;;;5037733;28;20635;-57
2022/04/20 05:00:43;;;;;;;1.50;1.40;;;19.00;41.90;;;;;;5045954;28;20680;-57
2022/04/20 05:03:09;;;;;;;1.20;1.10;;;18.90;41.80;;;;;;5047884;28;20245;-57
2022/04/20 05:05:34;;;;;;;1.53;1.00;;;18.90;41.80;;;;;;5038741;28;20234;-57
2022/04/20 05:08:00;;;;;;;1.30;1.20;;;18.90;41.80;;;;;;5044022;28;20464;-57
2022/04/20 05:10:26;;;;;;;1.20;1.10;;;18.90;41.70;;;;;;5043188;28;20222;-57
2022/04/20 05:12:51;;;;;;;1.30;1.20;;;18.90;41.70;;;;;;5040496;28;20215;-57
2022/04/20 05:15:17;;;;;;;1.33;1.23;;;18.90;41.70;;;;;;5039779;28;20775;-58
2022/04/20 05:17:43;;;;;;;1.33;1.23;;;19.00;41.80;;;;;;5046735;28;20228;-57
2022/04/20 05:20:09;;;;;;;1.10;1.10;;;18.90;41.70;;;;;;5042794;28;20218;-57
2022/04/20 05:22:37;;;;;;;1.87;1.20;;;18.90;41.70;;;;;;5042181;28;20261;-57
2022/04/20 05:25:03;;;;;;;1.13;1.10;;;18.90;41.70;;;;;;5046038;28;20767;-57
2022/04/20 05:27:28;;;;;;;1.00;1.00;;;19.00;41.80;;;;;;5041807;28;20815;-57
2022/04/20 05:29:54;;;;;;;1.33;1.23;;;18.90;41.70;;;;;;5041351;28;20473;-57
2022/04/20 05:32:20;;;;;;;1.33;1.10;;;19.00;41.80;;;;;;5043348;28;20222;-58
2022/04/20 05:34:45;;;;;;;2.00;1.07;;;19.00;41.80;;;;;;5038433;28;20595;-57
2022/04/20 05:42:39;;;;;;;1.70;1.60;;;19.00;41.80;;;;;;5047254;28;20908;-57
2022/04/20 05:45:05;;;;;;;1.20;1.10;;;19.00;41.70;;;;;;5042668;28;20438;-57
2022/04/20 05:47:32;;;;;;;1.40;1.30;;;19.00;41.70;;;;;;5041999;28;20253;-57
2022/04/20 05:49:57;;;;;;;1.23;1.13;;;19.00;41.70;;;;;;5038535;28;20845;-57
2022/04/20 05:52:23;;;;;;;1.43;1.27;;;19.00;41.70;;;;;;5041798;28;20548;-57
2022/04/20 05:54:48;;;;;;;1.20;1.10;;;19.00;41.70;;;;;;5040838;28;20693;-57
2022/04/20 05:57:14;;;;;;;1.83;1.00;;;19.00;41.70;;;;;;5038642;28;20215;-57
2022/04/20 05:59:39;;;;;;;1.23;1.13;;;19.00;41.70;;;;;;5046028;28;20218;-57
2022/04/20 06:02:06;;;;;;;1.33;1.23;;;19.00;41.80;;;;;;5044404;28;20292;-57
2022/04/20 06:04:31;;;;;;;1.30;1.20;;;19.00;41.80;;;;;;5041086;28;20668;-57
2022/04/20 06:06:57;;;;;;;1.23;1.13;;;19.00;41.70;;;;;;5040613;28;20415;-57
2022/04/20 06:09:23;;;;;;;1.70;1.20;;;19.00;41.80;;;;;;5038671;28;20586;-57
2022/04/20 06:11:49;;;;;;;1.40;1.30;;;19.00;41.70;;;;;;5037515;28;20234;-57
2022/04/20 06:14:15;;;;;;;1.20;1.10;;;19.00;41.80;;;;;;5038749;28;20309;-56
2022/04/20 06:16:41;;;;;;;1.40;1.30;;;19.00;41.70;;;;;;5039209;28;20534;-56
2022/04/20 06:19:07;;;;;;;1.30;1.20;;;19.00;41.80;;;;;;5045350;28;20227;-56
2022/04/20 06:21:33;;;;;;;1.27;1.17;;;18.90;41.60;;;;;;5041637;28;20238;-57
2022/04/20 06:23:59;;;;;;;1.70;1.40;;;19.00;41.70;;;;;;5027083;28;20465;-56
2022/04/20 06:26:24;;;;;;;1.40;1.30;;;19.00;41.80;;;;;;5040665;28;20215;-57
2022/04/20 06:28:50;;;;;;;1.40;1.30;;;19.00;41.80;;;;;;5042201;28;20324;-57
2022/04/20 06:31:15;;;;;;;1.50;1.40;;;18.90;41.70;;;;;;5024844;28;20258;-56
2022/04/20 06:33:41;;;;;;;1.50;1.40;;;19.00;41.80;;;;;;5037731;28;20561;-56
2022/04/20 06:36:06;;;;;;;1.47;1.37;;;19.00;41.80;;;;;;5042177;28;20210;-57
2022/04/20 06:38:32;;;;;;;1.30;1.03;;;19.00;41.80;;;;;;5044113;28;20288;-56
2022/04/20 06:40:58;;;;;;;1.30;1.20;;;19.00;41.80;;;;;;5044094;28;20214;-56
2022/04/20 06:43:24;;;;;;;1.33;1.23;;;19.00;41.80;;;;;;5035884;28;20235;-56
2022/04/20 06:45:58;;;;;;;1.50;1.30;;;19.00;41.80;;;;;;5044985;28;20479;-56
2022/04/20 06:48:25;;;;;;;1.57;1.47;;;19.00;41.80;;;;;;4996474;28;20230;-55
2022/04/20 06:50:50;;;;;;;1.60;1.50;;;19.00;41.80;;;;;;5038057;28;20753;-57
2022/04/20 06:58:44;;;;;;;1.50;1.40;;;19.00;41.90;;;;;;5044837;28;20485;-56
2022/04/20 07:01:11;;;;;;;1.43;1.30;;;19.00;41.80;;;;;;5040772;28;20829;-55
2022/04/20 07:03:37;;;;;;;1.20;1.10;;;19.00;41.80;;;;;;5043569;28;20313;-56
2022/04/20 07:06:04;;;;;;;1.30;1.20;;;19.00;41.70;;;;;;5039743;28;20931;-57
2022/04/20 07:08:30;;;;;;;1.47;1.37;;;19.00;41.70;;;;;;5042088;28;20454;-56
2022/04/20 07:10:57;;;;;;;1.37;1.27;;;19.00;41.80;;;;;;5038452;28;20419;-56
2022/04/20 07:13:22;;;;;;;1.30;1.20;;;19.00;41.80;;;;;;5038372;28;20483;-55
2022/04/20 07:15:49;;;;;;;1.40;1.30;;;19.00;41.80;;;;;;5043856;28;20422;-56
2022/04/20 07:18:14;;;;;;;1.20;1.10;;;19.00;41.80;;;;;;5043367;28;20237;-55
2022/04/20 07:20:41;;;;;;;2.10;1.47;;;19.00;41.80;;;;;;5039816;28;20424;-56
2022/04/20 07:23:07;;;;;;;1.50;1.40;;;19.00;41.80;;;;;;5042059;28;20269;-54
2022/04/20 07:25:33;;;;;;;1.33;1.23;;;19.00;41.80;;;;;;5041041;28;20518;-56
2022/04/20 07:27:59;;;;;;;1.43;1.33;;;19.00;41.80;;;;;;5035954;28;20537;-57
2022/04/20 07:30:26;;;;;;;1.50;1.40;;;19.00;41.80;;;;;;5041871;28;20683;-56
2022/04/20 07:32:52;;;;;;;1.40;1.30;;;19.00;41.80;;;;;;5039293;28;20229;-56
2022/04/20 07:35:18;;;;;;;1.37;1.27;;;19.00;41.80;;;;;;5039489;28;20414;-56
2022/04/20 07:37:43;;;;;;;1.30;1.20;;;19.00;41.90;;;;;;5038526;28;20268;-56
2022/04/20 07:40:09;;;;;;;1.30;1.20;;;19.00;41.90;;;;;;5045116;28;20219;-56
2022/04/20 07:42:36;;;;;;;1.47;1.20;;;19.00;41.90;;;;;;5038048;28;20239;-56
2022/04/20 07:45:02;;;;;;;1.17;1.07;;;19.00;41.90;;;;;;5040554;28;20463;-56
2022/04/20 07:47:28;;;;;;;1.40;1.30;;;19.00;41.90;;;;;;5040770;28;20604;-57
2022/04/20 07:52:40;;;;;;;1.30;1.10;;;19.00;41.80;;;;;;5041458;28;20234;-56
2022/04/20 07:55:15;;;;;;;1.20;1.10;;;19.00;41.90;;;;;;5041505;28;20513;-56
2022/04/20 07:57:44;;;;;;;1.37;1.20;;;19.00;41.90;;;;;;5040352;28;20406;-56
2022/04/20 08:00:11;;;;;;;1.57;1.23;;;19.00;41.90;;;;;;5041253;28;20435;-57
2022/04/20 08:02:37;;;;;;;1.43;1.30;;;19.00;41.90;;;;;;5039912;28;20544;-57
2022/04/20 08:05:03;;;;;;;1.40;1.30;;;19.00;41.90;;;;;;5041901;28;20545;-57
2022/04/20 08:07:28;;;;;;;1.30;1.20;;;19.00;41.90;;;;;;5041074;28;20215;-57
2022/04/20 08:09:54;;;;;;;1.30;1.20;;;19.00;41.90;;;;;;5041056;28;20612;-57
2022/04/20 08:12:20;;;;;;;1.27;1.17;;;19.00;41.90;;;;;;5040284;28;20712;-57
2022/04/20 08:14:45;;;;;;;4.50;1.60;;;19.00;41.90;;;;;;5042409;28;20222;-57
2022/04/20 08:17:11;;;;;;;1.43;1.33;;;19.00;41.90;;;;;;5044287;28;20222;-57
2022/04/20 08:19:37;;;;;;;1.30;1.20;;;19.00;41.90;;;;;;5039299;28;20218;-56
2022/04/20 08:22:04;;;;;;;1.50;1.40;;;19.00;41.90;;;;;;5036524;28;20311;-57
2022/04/20 08:24:30;;;;;;;1.83;1.33;;;19.00;41.90;;;;;;5039617;28;20223;-56
2022/04/20 08:26:55;;;;;;;2.23;1.40;;;19.00;41.90;;;;;;5033053;28;20772;-56
2022/04/20 08:29:21;;;;;;;1.50;1.40;;;19.00;41.90;;;;;;5041470;28;20256;-57
2022/04/20 08:31:46;;;;;;;1.30;1.20;;;19.00;41.80;;;;;;5043098;28;20249;-57
2022/04/20 08:34:12;;;;;;;1.67;1.40;;;19.00;41.90;;;;;;5036495;28;20219;-57
2022/04/20 08:36:37;;;;;;;1.30;1.20;;;19.00;41.90;;;;;;5039732;28;20639;-56
2022/04/20 08:39:03;;;;;;;1.30;1.20;;;19.00;41.90;;;;;;5041922;28;20611;-57
2022/04/20 08:41:29;;;;;;;1.33;1.23;;;19.00;41.80;;;;;;5035282;28;20245;-57
2022/04/20 08:43:56;;;;;;;1.40;1.30;;;19.00;41.90;;;;;;5034947;28;20227;-57
2022/04/20 08:46:23;;;;;;;1.50;1.40;;;19.00;41.80;;;;;;5042591;28;20223;-57
2022/04/20 08:48:50;;;;;;;1.40;1.30;;;19.00;41.90;;;;;;5031467;28;20950;-58
2022/04/20 08:51:17;;;;;;;1.40;1.30;;;19.00;41.90;;;;;;5029178;28;20770;-57
2022/04/20 08:53:43;;;;;;;1.40;1.30;;;19.00;41.90;;;;;;5043050;28;20439;-57
2022/04/20 08:58:53;;;;;;;2.00;1.10;;;19.00;42.70;;;;;;5038157;28;20284;-57
2022/04/20 09:01:19;;;;;;;1.37;1.27;;;19.00;41.90;;;;;;5037304;28;20414;-58
2022/04/20 09:03:48;;;;;;;1.60;1.50;;;19.00;41.90;;;;;;5040730;28;20434;-57
2022/04/20 09:06:14;;;;;;;1.60;1.50;;;19.00;41.80;;;;;;5046067;28;20240;-57
2022/04/20 09:08:40;;;;;;;1.60;1.50;;;19.00;41.80;;;;;;5044128;28;20437;-57
2022/04/20 09:11:07;;;;;;;1.40;1.30;;;19.00;41.80;;;;;;5043931;28;20510;-57
2022/04/20 09:13:41;;;;;;;1.40;1.30;;;19.00;41.90;;;;;;5044034;28;20497;-57
2022/04/20 09:16:09;;;;;;;1.70;1.60;;;19.00;41.90;;;;;;5043051;28;20414;-57
2022/04/20 09:18:35;;;;;;;1.70;1.60;;;19.00;41.80;;;;;;5039111;28;20446;-57
2022/04/20 09:21:06;;;;;;;1.40;1.30;;;19.00;41.80;;;;;;5042465;28;20513;-57
2022/04/20 09:23:32;;;;;;;1.40;1.30;;;19.00;41.80;;;;;;5042007;28;20446;-57
2022/04/20 09:26:07;;;;;;;2.40;1.20;;;19.00;41.80;;;;;;5038102;28;20418;-57
2022/04/20 09:28:32;;;;;;;1.40;1.30;;;19.00;41.90;;;;;;5043669;28;20954;-57
2022/04/20 09:30:58;;;;;;;1.40;1.30;;;19.00;41.80;;;;;;5046681;28;20431;-57
2022/04/20 09:33:42;;;;;;;1.50;1.40;;;19.00;41.90;;;;;;5040928;28;20317;-57
2022/04/20 09:36:07;;;;;;;1.37;1.27;;;19.00;41.80;;;;;;5046255;28;20225;-57
2022/04/20 09:38:37;;;;;;;1.40;1.30;;;19.00;41.80;;;;;;5043958;28;20837;-57
2022/04/20 09:41:09;;;;;;;1.50;1.40;;;19.00;41.80;;;;;;5039775;28;20218;-57
2022/04/20 09:43:35;;;;;;;1.30;1.20;;;19.00;41.80;;;;;;5022197;28;20486;-57
2022/04/20 09:49:05;;;;;;;1.40;1.30;;;19.00;41.80;;;;;;5042218;28;20519;-57
2022/04/20 09:51:41;;;;;;;1.60;1.50;;;19.00;41.90;;;;;;5043099;28;20435;-57
2022/04/20 09:54:24;;;;;;;1.50;1.40;;;19.00;41.80;;;;;;5046807;28;20501;-57
2022/04/20 09:57:08;;;;;;;1.40;1.30;;;19.00;41.80;;;;;;5042462;28;20493;-58
2022/04/20 09:59:34;;;;;;;1.40;1.30;;;19.00;41.80;;;;;;5044865;28;20497;-57
2022/04/20 10:02:11;;;;;;;1.63;1.53;;;19.00;41.80;;;;;;5037438;28;20442;-57
2022/04/20 10:04:40;;;;;;;1.70;1.60;;;19.00;41.80;;;;;;5037674;28;20242;-57
2022/04/20 10:07:05;;;;;;;1.60;1.50;;;19.00;41.80;;;;;;5044976;28;20944;-57
2022/04/20 10:09:31;;;;;;;1.60;1.50;;;18.90;41.80;;;;;;5046208;28;20444;-57
2022/04/20 10:11:57;;;;;;;3.63;1.60;;;19.00;41.80;;;;;;5036875;28;20219;-57
2022/04/20 10:17:10;;;;;;;1.50;1.40;;;18.90;41.70;;;;;;5039338;28;20971;-57
2022/04/20 10:19:37;;;;;;;1.70;1.60;;;18.90;41.70;;;;;;5039381;28;20451;-57
2022/04/20 10:22:05;;;;;;;1.87;1.77;;;18.90;41.70;;;;;;5043169;28;20525;-57
2022/04/20 10:24:37;;;;;;;1.50;1.40;;;18.90;41.70;;;;;;5038804;28;20418;-57
2022/04/20 10:27:21;;;;;;;3.60;1.50;;;18.90;41.70;;;;;;5046962;28;20461;-57
2022/04/20 10:30:07;;;;;;;1.50;1.40;;;18.90;41.70;;;;;;5040992;28;20443;-57
2022/04/20 10:32:48;;;;;;;1.80;1.70;;;18.90;41.70;;;;;;5038899;28;20466;-57
2022/04/20 10:35:14;;;;;;;1.60;1.50;;;18.90;41.80;;;;;;5039189;28;20496;-58
2022/04/20 10:37:41;;;;;;;2.40;1.60;;;18.90;41.80;;;;;;5041741;28;20479;-58
2022/04/20 10:40:17;;;;;;;1.80;1.70;;;18.90;41.80;;;;;;5036470;28;20306;-58
2022/04/20 10:42:46;;;;;;;2.13;2.03;;;18.90;41.70;;;;;;5041245;28;20470;-58
2022/04/20 10:45:12;;;;;;;1.70;1.60;;;18.90;41.80;;;;;;5045210;28;20418;-58
2022/04/20 10:47:42;;;;;;;1.70;1.60;;;18.90;41.70;;;;;;5041618;28;20434;-58
2022/04/20 10:50:22;;;;;;;1.87;1.77;;;18.90;41.70;;;;;;5042032;28;20900;-57
2022/04/20 10:53:05;;;;;;;1.90;1.80;;;18.90;41.70;;;;;;5042795;28;20456;-57
2022/04/20 10:55:31;;;;;;;2.03;1.93;;;18.90;41.70;;;;;;5040618;28;20828;-58
2022/04/20 10:58:01;;;;;;;1.90;1.80;;;18.90;41.70;;;;;;5038284;28;20451;-57
2022/04/20 11:00:33;;;;;;;1.80;1.70;;;18.90;41.80;;;;;;5041075;28;20227;-57
2022/04/20 11:03:03;;;;;;;1.80;1.70;;;18.90;41.70;;;;;;5037750;28;20426;-58
2022/04/20 11:05:29;;;;;;;2.00;1.90;;;18.90;41.80;;;;;;5043046;28;20512;-57
2022/04/20 11:08:14;;;;;;;6.50;1.80;;;18.90;41.80;;;;;;5043246;28;21036;-57
2022/04/20 11:10:42;;;;;;;1.73;1.63;;;18.90;41.80;;;;;;5043942;28;20671;-57
2022/04/20 11:19:12;;;;;;;1.80;1.70;;;18.90;41.80;;;;;;5037264;28;20494;-58
2022/04/20 11:21:52;;;;;;;2.03;1.93;;;18.90;41.80;;;;;;5038323;28;20918;-57
2022/04/20 11:24:28;;;;;;;2.30;2.10;;;18.90;41.80;;;;;;5044996;28;20418;-57
2022/04/20 11:26:55;;;;;;;2.50;2.30;;;18.90;41.90;;;;;;5041634;28;20430;-65
2022/04/20 11:29:22;;;;;;;2.10;1.90;;;18.90;41.80;;;;;;5038889;28;20505;-65
2022/04/20 11:31:58;;;;;;;2.17;2.00;;;18.90;41.90;;;;;;5038573;28;20435;-65
2022/04/20 11:34:26;;;;;;;2.27;2.17;;;18.90;41.90;;;;;;5037722;28;20535;-63
2022/04/20 11:36:53;;;;;;;2.00;1.90;;;18.90;41.90;;;;;;5038845;28;20909;-62
2022/04/20 11:39:21;;;;;;;2.07;1.97;;;18.90;41.90;;;;;;5039954;28;20839;-62
2022/04/20 11:41:52;;;;;;;2.10;2.00;;;18.90;41.80;;;;;;5037425;28;20517;-64
2022/04/20 11:44:22;;;;;;;2.30;2.20;;;18.90;41.80;;;;;;5041532;28;20452;-64
2022/04/20 11:46:49;;;;;;;2.40;2.30;;;18.90;41.70;;;;;;5042357;28;20426;-60
2022/04/20 11:49:15;;;;;;;2.10;2.00;;;19.00;41.90;;;;;;5036547;28;20445;-60
2022/04/20 11:51:46;;;;;;;2.37;2.20;;;19.00;41.70;;;;;;5041075;28;20444;-59
2022/04/20 11:54:18;;;;;;;2.20;2.10;;;19.00;41.70;;;;;;5036651;28;20438;-59
2022/04/20 11:56:43;;;;;;;2.70;2.57;;;19.00;41.80;;;;;;5037237;28;20416;-59
2022/04/20 11:59:09;;;;;;;2.40;2.30;;;19.00;41.70;;;;;;5039386;28;20955;-59
2022/04/20 12:01:37;;;;;;;2.40;2.30;;;19.00;41.80;;;;;;5041491;28;20224;-59
2022/04/20 12:04:18;;;;;;;2.70;2.60;;;19.00;41.80;;;;;;5039071;28;20237;-59
2022/04/20 12:06:49;;;;;;;2.50;2.40;;;19.00;41.80;;;;;;5036601;28;20843;-59
2022/04/20 12:09:18;;;;;;;2.30;2.20;;;19.00;41.70;;;;;;5038742;28;20819;-59
2022/04/20 12:11:44;;;;;;;2.30;2.20;;;19.00;41.80;;;;;;5038273;28;20426;-60
2022/04/20 12:14:10;;;;;;;2.30;2.20;;;19.00;41.80;;;;;;5040570;28;20411;-59
2022/04/20 12:16:36;;;;;;;2.37;2.27;;;19.00;41.80;;;;;;5033710;28;20305;-59
2022/04/20 12:19:02;;;;;;;2.90;2.70;;;19.00;41.80;;;;;;5042521;28;20474;-59
2022/04/20 12:21:46;;;;;;;2.30;2.20;;;19.00;41.80;;;;;;5043162;28;20238;-60
2022/04/20 12:24:22;;;;;;;3.17;2.10;;;19.00;41.80;;;;;;5012652;28;20561;-59
2022/04/20 12:26:51;;;;;;;2.43;2.33;;;19.00;41.80;;;;;;5037582;28;20911;-59
2022/04/20 12:29:20;;;;;;;3.00;2.70;;;19.00;41.80;;;;;;5041618;28;20896;-59
2022/04/20 12:31:49;;;;;;;3.07;2.87;;;19.00;41.90;;;;;;5036198;28;20791;-59
2022/04/20 12:34:15;;;;;;;2.53;2.37;;;19.00;41.90;;;;;;5037266;28;20561;-59
2022/04/20 12:36:58;;;;;;;2.40;2.30;;;19.00;41.90;;;;;;5040946;28;20505;-59
2022/04/20 12:39:31;;;;;;;2.00;1.90;;;19.00;41.90;;;;;;5039183;28;20460;-59
2022/04/20 12:42:11;;;;;;;2.33;2.23;;;18.90;41.80;;;;;;5044405;28;20521;-59
2022/04/20 12:44:52;;;;;;;2.50;2.30;;;18.90;41.80;;;;;;5027454;28;20422;-59
2022/04/20 12:47:18;;;;;;;2.50;2.40;;;18.90;41.90;;;;;;5041033;28;20428;-59
2022/04/20 12:49:48;;;;;;;2.53;2.43;;;19.00;41.90;;;;;;5043020;28;20430;-59
2022/04/20 12:52:16;;;;;;;2.30;2.20;;;19.00;42.00;;;;;;5045973;28;20444;-59
2022/04/20 12:54:56;;;;;;;2.70;2.60;;;18.90;41.90;;;;;;5044765;28;20816;-59
2022/04/20 13:03:05;;;;;;;2.30;2.20;;;18.90;41.90;;;;;;5043151;28;20453;-59
2022/04/20 13:05:35;;;;;;;3.30;2.40;;;18.90;41.90;;;;;;5041024;28;20435;-59
2022/04/20 13:08:02;;;;;;;2.30;2.20;;;18.90;41.90;;;;;;5043742;28;20449;-59
2022/04/20 13:10:34;;;;;;;2.80;2.70;;;18.90;41.90;;;;;;5037999;28;20419;-59
2022/04/20 13:13:00;;;;;;;2.67;2.57;;;18.90;42.00;;;;;;5044733;28;20784;-59
2022/04/20 13:15:29;;;;;;;2.30;2.20;;;18.90;42.80;;;;;;5024244;28;20970;-59
2022/04/20 13:17:56;;;;;;;2.70;2.50;;;18.90;42.00;;;;;;5039952;28;20443;-59
2022/04/20 13:20:22;;;;;;;2.60;2.40;;;18.90;42.70;;;;;;5045774;28;20496;-59
2022/04/20 13:22:47;;;;;;;2.50;2.40;;;18.90;42.00;;;;;;5045641;28;20900;-59
2022/04/20 13:27:57;;;;;;;3.10;2.93;;;18.90;42.00;;;;;;5043390;28;20691;-58
2022/04/20 13:30:28;;;;;;;2.87;2.73;;;18.90;42.00;;;;;;5041940;28;20444;-59
2022/04/20 13:32:55;;;;;;;2.87;2.77;;;18.90;42.00;;;;;;5037906;28;20222;-59
2022/04/20 13:35:24;;;;;;;3.03;2.83;;;18.90;42.00;;;;;;5046826;28;20505;-58